Mister Mac — WDH8821 — position and weather

sailwx.info

Track history (hours):
 
Tides and Currents Weather Stations Pressure Air Temp Water Temp Dewpoint Dewpoint Depression Visibility Wind Speed Wind Dir Waves Ship Positions

Mister Mac

Owner: McDonough Project Services LP, Metairie, LA. More information available from US FCC via Universal Licensing System and Coast Guard Vessel Documentation Center.

Last reported at 2017-Oct-21 12:38 UTC. Time now 2017-Nov-21 19:06 UTC.
Position N 32°40' W 091°08'.
Warning: this ship's position is 31 days out of date.

Length 25 m; draft 3 m.

Type: Towing. MMSI: 367661820.

Date/timePositionNaut miles runAvg speedWind from/ knotsBaromVisibWave heightAir tempDewpointWater temp
2017-Oct-21 12:38N 32°40' W 091°08'3 3.9
2017-Oct-21 11:50N 32°37' W 091°09'0 0.3
2017-Oct-21 11:30N 32°37' W 091°09'0 0.0
2017-Oct-21 11:00N 32°37' W 091°09'0 0.0
2017-Oct-21 10:30N 32°37' W 091°09'1 1.2
2017-Oct-21 10:01N 32°37' W 091°09'2 4.3
2017-Oct-21 09:31N 32°35' W 091°07'2 4.3
2017-Oct-21 09:01N 32°33' W 091°06'2 3.7
2017-Oct-21 08:30N 32°31' W 091°06'2 4.5
2017-Oct-21 08:01N 32°29' W 091°07'2 4.7
2017-Oct-21 07:31N 32°27' W 091°06'2 4.8
2017-Oct-21 07:01N 32°26' W 091°03'1 1.4
2017-Oct-21 06:31N 32°26' W 091°02'2 4.5
2017-Oct-21 06:01N 32°25' W 090°60'2 3.4
2017-Oct-21 05:31N 32°23' W 090°60'2 4.0
2017-Oct-21 05:01N 32°21' W 091°00'2 3.2
2017-Oct-21 04:30N 32°21' W 090°58'1 2.4
2017-Oct-21 04:01N 32°21' W 090°57'2 4.7
2017-Oct-21 03:31N 32°20' W 090°54'2 4.7
2017-Oct-21 03:01N 32°18' W 090°55'3 5.2
2017-Oct-21 02:31N 32°16' W 090°58'2 4.2
2017-Oct-21 02:01N 32°15' W 090°59'2 4.0
2017-Oct-21 01:30N 32°13' W 090°59'2 4.3
2017-Oct-21 00:59N 32°10' W 090°60'2 4.4
2017-Oct-21 00:30N 32°08' W 091°00'2 4.3
2017-Oct-21 00:01N 32°07' W 091°02'2 4.6
2017-Oct-20 23:30N 32°08' W 091°05'2 3.5
2017-Oct-20 23:00N 32°07' W 091°06'5 2.5
2017-Oct-20 20:58N 32°02' W 091°04'2 4.7
2017-Oct-20 20:30N 31°60' W 091°05'  
2017-Oct-18 05:05N 29°37' W 090°59'2 5.5
2017-Oct-18 04:47N 29°36' W 090°58'2 5.4
2017-Oct-18 04:28N 29°34' W 090°57'5 5.5
2017-Oct-18 03:36N 29°32' W 090°52'1 5.4
2017-Oct-18 03:30N 29°32' W 090°51'3 5.5
2017-Oct-18 03:01N 29°32' W 090°48'3 5.2
2017-Oct-18 02:31N 29°33' W 090°45'2 4.5
2017-Oct-18 02:01N 29°34' W 090°43'2 3.6
2017-Oct-18 01:31N 29°36' W 090°43'1 2.6
2017-Oct-18 01:01N 29°37' W 090°41'1 2.9
2017-Oct-18 00:30N 29°36' W 090°40'3 5.2
2017-Oct-18 00:00N 29°35' W 090°37'1 2.5
2017-Oct-17 23:31N 29°35' W 090°36'0 0.1
2017-Oct-17 23:00N 29°35' W 090°36'1 2.6
2017-Oct-17 22:31N 29°35' W 090°37'3 5.9
2017-Oct-17 22:00N 29°36' W 090°40'2 4.0
2017-Oct-17 21:31N 29°36' W 090°43'2 3.2
2017-Oct-17 21:01N 29°35' W 090°43'0 0.0
2017-Oct-17 20:31N 29°35' W 090°43'0 0.0
2017-Oct-17 20:00N 29°35' W 090°43'1 2.1
2017-Oct-17 19:31N 29°34' W 090°43'2 5.0
2017-Oct-17 19:00N 29°32' W 090°46'3 5.4
2017-Oct-17 18:30N 29°32' W 090°49'3 5.7
2017-Oct-17 18:00N 29°32' W 090°52'3 5.7
2017-Oct-17 17:27N 29°34' W 090°55'  
2017-Oct-15 05:26N 31°43' W 091°23'611.1
2017-Oct-15 04:54N 31°49' W 091°21'4 7.5
2017-Oct-15 04:25N 31°51' W 091°19'8 9.2
2017-Oct-15 03:34N 31°57' W 091°12'111.5
2017-Oct-15 03:30N 31°57' W 091°11'510.3
2017-Oct-15 03:01N 31°59' W 091°06'510.3
2017-Oct-15 02:30N 32°04' W 091°04'4 7.3
2017-Oct-15 02:01N 32°08' W 091°05'4 8.7
2017-Oct-15 01:31N 32°10' W 091°00'611.4
2017-Oct-15 01:01N 32°15' W 090°59'611.3
2017-Oct-15 00:31N 32°19' W 090°54'5 9.5
2017-Oct-15 00:01N 32°21' W 090°59'5 9.5
2017-Oct-14 23:31N 32°26' W 091°01'511.0
2017-Oct-14 23:01N 32°28' W 091°07'611.1
2017-Oct-14 22:31N 32°34' W 091°06'  
Track history (hours):
 
Tides and Currents Weather Stations Pressure Air Temp Water Temp Dewpoint Dewpoint Depression Visibility Wind Speed Wind Dir Waves Ship Positions

Mister Mac

Owner: McDonough Project Services LP, Metairie, LA. More information available from US FCC via Universal Licensing System and Coast Guard Vessel Documentation Center.

Last reported at 2017-Oct-21 12:38 UTC. Time now 2017-Nov-21 19:06 UTC.
Position N 32°40' W 091°08'.
Warning: this ship's position is 31 days out of date.

Length 25 m; draft 3 m.

Type: Towing. MMSI: 367661820.

Date/timePositionNaut miles runAvg speedWind from/ knotsBaromVisibWave heightAir tempDewpointWater temp
2017-Oct-21 12:38N 32°40' W 091°08'3 3.9
2017-Oct-21 11:50N 32°37' W 091°09'0 0.3
2017-Oct-21 11:30N 32°37' W 091°09'0 0.0
2017-Oct-21 11:00N 32°37' W 091°09'0 0.0
2017-Oct-21 10:30N 32°37' W 091°09'1 1.2
2017-Oct-21 10:01N 32°37' W 091°09'2 4.3
2017-Oct-21 09:31N 32°35' W 091°07'2 4.3
2017-Oct-21 09:01N 32°33' W 091°06'2 3.7
2017-Oct-21 08:30N 32°31' W 091°06'2 4.5
2017-Oct-21 08:01N 32°29' W 091°07'2 4.7
2017-Oct-21 07:31N 32°27' W 091°06'2 4.8
2017-Oct-21 07:01N 32°26' W 091°03'1 1.4
2017-Oct-21 06:31N 32°26' W 091°02'2 4.5
2017-Oct-21 06:01N 32°25' W 090°60'2 3.4
2017-Oct-21 05:31N 32°23' W 090°60'2 4.0
2017-Oct-21 05:01N 32°21' W 091°00'2 3.2
2017-Oct-21 04:30N 32°21' W 090°58'1 2.4
2017-Oct-21 04:01N 32°21' W 090°57'2 4.7
2017-Oct-21 03:31N 32°20' W 090°54'2 4.7
2017-Oct-21 03:01N 32°18' W 090°55'3 5.2
2017-Oct-21 02:31N 32°16' W 090°58'2 4.2
2017-Oct-21 02:01N 32°15' W 090°59'2 4.0
2017-Oct-21 01:30N 32°13' W 090°59'2 4.3
2017-Oct-21 00:59N 32°10' W 090°60'2 4.4
2017-Oct-21 00:30N 32°08' W 091°00'2 4.3
2017-Oct-21 00:01N 32°07' W 091°02'2 4.6
2017-Oct-20 23:30N 32°08' W 091°05'2 3.5
2017-Oct-20 23:00N 32°07' W 091°06'5 2.5
2017-Oct-20 20:58N 32°02' W 091°04'2 4.7
2017-Oct-20 20:30N 31°60' W 091°05'  
2017-Oct-18 05:05N 29°37' W 090°59'2 5.5
2017-Oct-18 04:47N 29°36' W 090°58'2 5.4
2017-Oct-18 04:28N 29°34' W 090°57'5 5.5
2017-Oct-18 03:36N 29°32' W 090°52'1 5.4
2017-Oct-18 03:30N 29°32' W 090°51'3 5.5
2017-Oct-18 03:01N 29°32' W 090°48'3 5.2
2017-Oct-18 02:31N 29°33' W 090°45'2 4.5
2017-Oct-18 02:01N 29°34' W 090°43'2 3.6
2017-Oct-18 01:31N 29°36' W 090°43'1 2.6
2017-Oct-18 01:01N 29°37' W 090°41'1 2.9
2017-Oct-18 00:30N 29°36' W 090°40'3 5.2
2017-Oct-18 00:00N 29°35' W 090°37'1 2.5
2017-Oct-17 23:31N 29°35' W 090°36'0 0.1
2017-Oct-17 23:00N 29°35' W 090°36'1 2.6
2017-Oct-17 22:31N 29°35' W 090°37'3 5.9
2017-Oct-17 22:00N 29°36' W 090°40'2 4.0
2017-Oct-17 21:31N 29°36' W 090°43'2 3.2
2017-Oct-17 21:01N 29°35' W 090°43'0 0.0
2017-Oct-17 20:31N 29°35' W 090°43'0 0.0
2017-Oct-17 20:00N 29°35' W 090°43'1 2.1
2017-Oct-17 19:31N 29°34' W 090°43'2 5.0
2017-Oct-17 19:00N 29°32' W 090°46'3 5.4
2017-Oct-17 18:30N 29°32' W 090°49'3 5.7
2017-Oct-17 18:00N 29°32' W 090°52'3 5.7
2017-Oct-17 17:27N 29°34' W 090°55'  
2017-Oct-15 05:26N 31°43' W 091°23'611.1
2017-Oct-15 04:54N 31°49' W 091°21'4 7.5
2017-Oct-15 04:25N 31°51' W 091°19'8 9.2
2017-Oct-15 03:34N 31°57' W 091°12'111.5
2017-Oct-15 03:30N 31°57' W 091°11'510.3
2017-Oct-15 03:01N 31°59' W 091°06'510.3
2017-Oct-15 02:30N 32°04' W 091°04'4 7.3
2017-Oct-15 02:01N 32°08' W 091°05'4 8.7
2017-Oct-15 01:31N 32°10' W 091°00'611.4
2017-Oct-15 01:01N 32°15' W 090°59'611.3
2017-Oct-15 00:31N 32°19' W 090°54'5 9.5
2017-Oct-15 00:01N 32°21' W 090°59'5 9.5
2017-Oct-14 23:31N 32°26' W 091°01'511.0
2017-Oct-14 23:01N 32°28' W 091°07'611.1
2017-Oct-14 22:31N 32°34' W 091°06'  

Dump ship's entire track history